Huvudsida
METAR-TAF:

METAR-TAF

Flygplatser :

Buri Ram, Thailand

latitud: 15-13-46N, longitud: 103-15-04E, höjd: 180 m

Aktuellt väderrapport

Denna rapport gjordes för 7 timmar och 56 minuter sedan, klockan 13:00 UTC
Vind 4 kt från syd/sydost
Temperatur 32°C
Fuktighet 38%
Tryck 1011 hPa
Sikt 10 km eller mer
Få moln på en höjd av 4000 ft

METAR: VTUO 221300Z 15004KT 9999 FEW040 32/16 Q1011 NOSIG

Tid: 03:56 (20:56 UTC)

Väderprognos

Denna rapport gjordes för 3 timmar och 56 minuter sedan, klockan 17:00 UTC
Prognos gäller från 22 kl. 18 UTC till 23 kl. 18 UTC
Vind 5 kt från syd
Sikt: 8000 m
Få moln på en höjd av 3500 ft

TAF: VTUO 221700Z 2218/2318 18005KT 8000 FEW035

Aktuella väderrapporter och prognoser från 4000 flygplatser (METAR- och TAF-rapporter).

De tillgängliga stationerna syns som gula och röda prickar på kartan.

För musen över prickarna för att se namnen på stationerna.

Klicka sedan för att få väderrapporter och prognoser.

För att ändra kartan: Klicka på de gröna knapparna med ett svart kors på för att zooma in; den gröna knappen med ett streck på för att zooma ut; eller på de gröna pilarna för angränsande kartor.


METAR-TAF: